Time;durP1;ratioP1;P1;durP2;ratioP2;P2;SDS_P1;SDS_P2;PMS_P1;PMS_P2;Temp;Humidity;BMP_temperature;BMP_pressure;BME280_temperature;BME280_humidity;BME280_pressure;Samples;Min_cycle;Max_cycle;Signal;HPM_P1;HPM_P2
2022/07/11 00:00:02;;;;;;;7.40;1.23;;;;;;;;;;5130524;28;20961;-72
2022/07/11 00:02:29;;;;;;;9.00;1.90;;;;;;;;;;5131473;28;20455;-72
2022/07/11 00:04:56;;;;;;;8.07;1.00;;;;;;;;;;5131640;28;20458;-72
2022/07/11 00:07:23;;;;;;;6.97;1.00;;;;;;;;;;5131701;28;20804;-73
2022/07/11 00:09:50;;;;;;;7.13;0.90;;;;;;;;;;5130971;28;20447;-73
2022/07/11 00:12:20;;;;;;;8.57;1.83;;;;;;;;;;5135388;27;20818;-73
2022/07/11 00:14:49;;;;;;;7.00;1.00;;;;;;;;;;5131330;28;21039;-73
2022/07/11 00:17:16;;;;;;;9.20;1.17;;;;;;;;;;5130935;28;20827;-72
2022/07/11 00:19:43;;;;;;;7.10;0.90;;;;;;;;;;5130958;28;20447;-73
2022/07/11 00:22:10;;;;;;;7.20;1.00;;;;;;;;;;5130681;28;20483;-73
2022/07/11 00:24:37;;;;;;;8.30;1.70;;;;;;;;;;5131285;28;20454;-73
2022/07/11 00:27:05;;;;;;;8.20;1.00;;;;;;;;;;5130455;28;20443;-73
2022/07/11 00:29:32;;;;;;;7.70;1.03;;;;;;;;;;5130802;28;20446;-73
2022/07/11 00:32:00;;;;;;;7.50;0.90;;;;;;;;;;5130812;28;21025;-71
2022/07/11 00:34:28;;;;;;;7.70;1.30;;;;;;;;;;5130832;28;20493;-72
2022/07/11 00:36:55;;;;;;;7.43;1.10;;;;;;;;;;5130835;28;20451;-73
2022/07/11 00:39:22;;;;;;;7.70;1.20;;;;;;;;;;5130936;28;20451;-72
2022/07/11 00:41:49;;;;;;;10.07;2.10;;;;;;;;;;5132842;27;20450;-72
2022/07/11 00:44:16;;;;;;;8.87;1.30;;;;;;;;;;5121189;27;20700;-72
2022/07/11 00:46:44;;;;;;;7.70;1.07;;;;;;;;;;5135024;27;20446;-72
2022/07/11 00:49:12;;;;;;;7.90;1.30;;;;;;;;;;5133988;27;20958;-72
2022/07/11 00:51:39;;;;;;;7.60;1.30;;;;;;;;;;5134797;27;20443;-73
2022/07/11 00:54:09;;;;;;;7.70;1.03;;;;;;;;;;5134317;27;20481;-72
2022/07/11 00:56:36;;;;;;;8.30;1.20;;;;;;;;;;5134842;27;20495;-72
2022/07/11 00:59:03;;;;;;;7.80;0.93;;;;;;;;;;5134149;27;20443;-72
2022/07/11 01:01:30;;;;;;;7.90;1.10;;;;;;;;;;5134610;27;20817;-72
2022/07/11 01:03:58;;;;;;;8.70;1.30;;;;;;;;;;5134541;27;20461;-71
2022/07/11 01:06:26;;;;;;;7.97;1.20;;;;;;;;;;5134547;27;20443;-71
2022/07/11 01:08:53;;;;;;;8.10;1.23;;;;;;;;;;5130582;27;20439;-71
2022/07/11 01:11:20;;;;;;;7.97;1.33;;;;;;;;;;5136645;27;20956;-71
2022/07/11 01:13:48;;;;;;;8.63;1.40;;;;;;;;;;5135090;27;20482;-72
2022/07/11 01:16:16;;;;;;;8.13;1.10;;;;;;;;;;5134150;27;20445;-72
2022/07/11 01:18:44;;;;;;;9.27;1.20;;;;;;;;;;5133324;27;21005;-72
2022/07/11 01:21:23;;;;;;;7.83;1.20;;;;;;;;;;5133423;27;20477;-72
2022/07/11 01:23:52;;;;;;;8.30;1.20;;;;;;;;;;5134193;27;20572;-71
2022/07/11 01:26:20;;;;;;;8.00;1.13;;;;;;;;;;5133749;27;20451;-71
2022/07/11 01:28:48;;;;;;;8.37;1.43;;;;;;;;;;5133761;27;20450;-71
2022/07/11 01:31:15;;;;;;;7.77;1.00;;;;;;;;;;5133787;27;20465;-72
2022/07/11 01:33:42;;;;;;;8.20;1.00;;;;;;;;;;5133845;27;20889;-72
2022/07/11 01:36:09;;;;;;;8.10;1.30;;;;;;;;;;5133473;27;20449;-71
2022/07/11 01:38:37;;;;;;;10.73;1.70;;;;;;;;;;5133008;27;20464;-72
2022/07/11 01:41:05;;;;;;;8.87;1.10;;;;;;;;;;5133803;27;20531;-71
2022/07/11 01:43:33;;;;;;;7.80;1.27;;;;;;;;;;5134131;27;20439;-74
2022/07/11 01:46:00;;;;;;;8.90;1.40;;;;;;;;;;5133508;27;20531;-72
2022/07/11 01:48:28;;;;;;;8.67;1.30;;;;;;;;;;5133250;27;21009;-73
2022/07/11 01:50:55;;;;;;;8.40;1.30;;;;;;;;;;5133782;27;20454;-73
2022/07/11 01:53:22;;;;;;;8.00;1.30;;;;;;;;;;5133071;27;21086;-73
2022/07/11 01:55:49;;;;;;;8.20;1.33;;;;;;;;;;5133841;27;20823;-73
2022/07/11 01:58:18;;;;;;;8.60;1.60;;;;;;;;;;5132871;27;20623;-72
2022/07/11 02:00:45;;;;;;;7.67;0.93;;;;;;;;;;5133812;27;20791;-72
2022/07/11 02:03:12;;;;;;;8.00;1.07;;;;;;;;;;5133281;27;20450;-73
2022/07/11 02:05:39;;;;;;;7.50;0.90;;;;;;;;;;5133983;27;20447;-73
2022/07/11 02:08:13;;;;;;;7.73;1.20;;;;;;;;;;5135069;27;20447;-71
2022/07/11 02:10:42;;;;;;;7.80;1.10;;;;;;;;;;5138259;27;20435;-73
2022/07/11 02:13:10;;;;;;;8.10;1.50;;;;;;;;;;5138778;27;20458;-73
2022/07/11 02:15:39;;;;;;;9.90;1.50;;;;;;;;;;5129379;27;21050;-73
2022/07/11 02:18:06;;;;;;;7.90;1.33;;;;;;;;;;5133830;27;20450;-71
2022/07/11 02:20:33;;;;;;;7.90;1.30;;;;;;;;;;5125780;27;20466;-73
2022/07/11 02:23:01;;;;;;;8.33;1.13;;;;;;;;;;5132197;27;20452;-72
2022/07/11 02:25:29;;;;;;;7.53;1.30;;;;;;;;;;5133076;27;20503;-73
2022/07/11 02:27:56;;;;;;;8.83;1.50;;;;;;;;;;5133395;27;20477;-72
2022/07/11 02:30:23;;;;;;;8.97;1.10;;;;;;;;;;5132889;27;20526;-72
2022/07/11 02:32:53;;;;;;;7.90;1.50;;;;;;;;;;5127125;27;20447;-72
2022/07/11 02:35:20;;;;;;;7.73;1.40;;;;;;;;;;5132390;27;20485;-71
2022/07/11 02:37:48;;;;;;;8.10;1.50;;;;;;;;;;5133316;27;20446;-72
2022/07/11 02:40:16;;;;;;;8.40;1.60;;;;;;;;;;5132153;27;20480;-73
2022/07/11 02:42:43;;;;;;;8.57;1.30;;;;;;;;;;5133405;27;20453;-73
2022/07/11 02:45:10;;;;;;;7.70;1.33;;;;;;;;;;5132745;27;20457;-72
2022/07/11 02:47:39;;;;;;;8.37;1.17;;;;;;;;;;5133218;27;20453;-73
2022/07/11 02:50:08;;;;;;;7.83;1.10;;;;;;;;;;5131902;27;20548;-73
2022/07/11 02:52:35;;;;;;;9.27;1.33;;;;;;;;;;5132514;27;20456;-73
2022/07/11 02:55:03;;;;;;;8.20;1.50;;;;;;;;;;5132145;27;20477;-73
2022/07/11 02:57:30;;;;;;;8.90;1.53;;;;;;;;;;5132675;27;20446;-72
2022/07/11 02:59:57;;;;;;;8.10;1.30;;;;;;;;;;5131891;27;20441;-71
2022/07/11 03:02:24;;;;;;;7.80;1.00;;;;;;;;;;5132656;27;20465;-73
2022/07/11 03:04:51;;;;;;;8.47;1.67;;;;;;;;;;5131747;27;20451;-72
2022/07/11 03:07:20;;;;;;;8.00;1.43;;;;;;;;;;5131650;27;20959;-72
2022/07/11 03:09:47;;;;;;;7.87;1.30;;;;;;;;;;5131813;27;20447;-73
2022/07/11 03:12:14;;;;;;;8.00;1.60;;;;;;;;;;5134324;27;20470;-72
2022/07/11 03:14:42;;;;;;;8.37;1.50;;;;;;;;;;5132597;27;20486;-73
2022/07/11 03:17:09;;;;;;;8.30;1.47;;;;;;;;;;5131076;27;20465;-72
2022/07/11 03:19:36;;;;;;;7.90;1.30;;;;;;;;;;5131117;27;20819;-72
2022/07/11 03:22:04;;;;;;;9.67;1.63;;;;;;;;;;5131762;27;20852;-72
2022/07/11 03:24:32;;;;;;;7.80;1.30;;;;;;;;;;5132208;27;20812;-72
2022/07/11 03:26:59;;;;;;;8.83;1.50;;;;;;;;;;5131421;27;20471;-71
2022/07/11 03:29:26;;;;;;;10.63;1.43;;;;;;;;;;5131726;27;20932;-72
2022/07/11 03:31:53;;;;;;;8.57;1.33;;;;;;;;;;5132170;27;20454;-72
2022/07/11 03:34:21;;;;;;;8.83;1.40;;;;;;;;;;5131222;27;20486;-72
2022/07/11 03:36:48;;;;;;;8.50;1.40;;;;;;;;;;5132141;27;20759;-72
2022/07/11 03:39:15;;;;;;;8.17;1.40;;;;;;;;;;5131388;27;20484;-72
2022/07/11 03:41:44;;;;;;;8.63;1.27;;;;;;;;;;5131629;27;20449;-73
2022/07/11 03:44:11;;;;;;;7.83;1.40;;;;;;;;;;5131454;27;20499;-72
2022/07/11 03:46:38;;;;;;;8.23;1.50;;;;;;;;;;5132144;27;20457;-72
2022/07/11 03:49:06;;;;;;;9.13;1.93;;;;;;;;;;5130932;27;20805;-72
2022/07/11 03:51:32;;;;;;;8.30;1.50;;;15.70;1.00;;;;;;5131208;27;20456;-72
2022/07/11 03:54:00;;;;;;;7.80;1.33;;;15.70;99.90;;;;;;5131181;27;20789;-71
2022/07/11 03:56:27;;;;;;;8.30;1.63;;;15.70;1.00;;;;;;5131417;28;20576;-72
2022/07/11 03:58:55;;;;;;;7.93;1.60;;;15.70;99.90;;;;;;5131115;28;20444;-72
2022/07/11 04:01:22;;;;;;;8.40;1.77;;;15.90;99.90;;;;;;5131881;28;20447;-72
2022/07/11 04:03:48;;;;;;;8.53;1.60;;;15.90;99.90;;;;;;5130945;28;20455;-72
2022/07/11 04:06:16;;;;;;;9.40;1.90;;;16.00;99.90;;;;;;5130728;28;20809;-72
2022/07/11 04:08:43;;;;;;;8.00;1.30;;;16.00;99.90;;;;;;5130651;28;20449;-73
2022/07/11 04:11:10;;;;;;;11.80;1.73;;;15.70;1.00;;;;;;5132251;27;20555;-73
2022/07/11 04:13:36;;;;;;;8.50;1.33;;;15.70;99.90;;;;;;5143220;27;20482;-73
2022/07/11 04:16:05;;;;;;;9.70;3.03;;;15.70;99.90;;;;;;5131441;27;20475;-73
2022/07/11 04:18:32;;;;;;;8.00;1.43;;;15.70;1.00;;;;;;5135361;27;20457;-73
2022/07/11 04:20:59;;;;;;;8.40;1.53;;;15.80;1.00;;;;;;5134079;27;20454;-74
2022/07/11 04:23:26;;;;;;;8.70;1.63;;;15.80;54.90;;;;;;5135376;27;20458;-72
2022/07/11 04:25:53;;;;;;;8.20;1.50;;;15.80;99.90;;;;;;5135352;27;20458;-72
2022/07/11 04:28:20;;;;;;;8.07;1.83;;;15.80;99.90;;;;;;5134480;27;20455;-72
2022/07/11 04:30:47;;;;;;;8.80;1.57;;;15.70;1.00;;;;;;5135224;27;20443;-72
2022/07/11 04:33:15;;;;;;;9.60;1.90;;;15.80;1.00;;;;;;5134125;27;20549;-72
2022/07/11 04:35:43;;;;;;;9.33;1.97;;;15.70;99.90;;;;;;5134669;27;20836;-73
2022/07/11 04:38:09;;;;;;;8.47;1.80;;;15.80;99.90;;;;;;5134145;27;20495;-72
2022/07/11 04:40:36;;;;;;;8.80;1.93;;;15.70;99.90;;;;;;5135576;27;20447;-73
2022/07/11 04:43:04;;;;;;;7.87;1.57;;;15.80;99.90;;;;;;5140744;27;20494;-72
2022/07/11 04:45:31;;;;;;;8.30;1.80;;;15.70;1.00;;;;;;5137429;27;21010;-71
2022/07/11 04:47:59;;;;;;;8.50;1.50;;;15.60;99.90;;;;;;5134540;27;20803;-71
2022/07/11 04:50:27;;;;;;;8.20;1.60;;;15.60;99.90;;;;;;5135523;27;20463;-72
2022/07/11 04:52:54;;;;;;;7.80;1.37;;;15.70;99.90;;;;;;5134065;27;20988;-72
2022/07/11 04:55:21;;;;;;;8.97;1.70;;;15.80;99.90;;;;;;5133781;27;20493;-71
2022/07/11 04:57:48;;;;;;;8.43;1.60;;;;;;;;;;5135342;27;20526;-71
2022/07/11 05:00:16;;;;;;;8.07;1.40;;;;;;;;;;5134435;27;20938;-72
2022/07/11 05:02:43;;;;;;;9.13;1.97;;;;;;;;;;5135319;27;20449;-72
2022/07/11 05:05:10;;;;;;;8.70;1.90;;;;;;;;;;5134563;27;20448;-72
2022/07/11 05:07:39;;;;;;;9.60;1.70;;;;;;;;;;5135115;27;20452;-72
2022/07/11 05:10:06;;;;;;;8.80;2.27;;;;;;;;;;5120625;27;20458;-73
2022/07/11 05:12:34;;;;;;;8.90;1.80;;;;;;;;;;5142004;27;20994;-73
2022/07/11 05:15:01;;;;;;;8.10;1.60;;;;;;;;;;5131028;27;20847;-73
2022/07/11 05:17:29;;;;;;;8.20;1.80;;;;;;;;;;5133418;27;20930;-76
2022/07/11 05:19:56;;;;;;;8.70;1.70;;;;;;;;;;5135150;27;20441;-75
2022/07/11 05:22:23;;;;;;;8.70;2.10;;;;;;;;;;5135406;27;20500;-74
2022/07/11 05:24:52;;;;;;;8.87;1.93;;;;;;;;;;5133991;27;20451;-75
2022/07/11 05:27:19;;;;;;;8.57;1.87;;;;;;;;;;5133128;27;20453;-73
2022/07/11 05:29:46;;;;;;;8.67;1.90;;;;;;;;;;5132952;27;20450;-71
2022/07/11 05:32:13;;;;;;;9.00;1.90;;;;;;;;;;5133769;27;20458;-72
2022/07/11 05:34:41;;;;;;;9.57;2.17;;;;;;;;;;5133172;27;20469;-72
2022/07/11 05:37:08;;;;;;;10.27;2.10;;;;;;;;;;5133813;27;20455;-72
2022/07/11 05:39:35;;;;;;;9.30;2.47;;;;;;;;;;5134348;27;20526;-72
2022/07/11 05:42:04;;;;;;;8.90;1.60;;;;;;;;;;5133450;27;20989;-71
2022/07/11 05:44:31;;;;;;;8.90;2.10;;;;;;;;;;5133991;27;20450;-71
2022/07/11 05:47:01;;;;;;;9.17;2.23;;;;;;;;;;5133391;27;20840;-71
2022/07/11 05:49:29;;;;;;;8.70;2.00;;;;;;;;;;5134321;27;20454;-72
2022/07/11 05:51:56;;;;;;;14.10;2.43;;;;;;;;;;5134449;27;20447;-71
2022/07/11 05:54:23;;;;;;;9.73;2.30;;;;;;;;;;5133566;27;20447;-71
2022/07/11 05:56:51;;;;;;;8.67;1.90;;;;;;;;;;5133795;27;20478;-71
2022/07/11 05:59:19;;;;;;;10.30;2.73;;;;;;;;;;5133260;27;20453;-71
2022/07/11 06:01:46;;;;;;;8.50;2.10;;;;;;;;;;5133984;27;20817;-72
2022/07/11 06:04:13;;;;;;;8.30;1.97;;;;;;;;;;5132972;27;20458;-71
2022/07/11 06:06:40;;;;;;;8.67;2.47;;;;;;;;;;5133747;27;20447;-72
2022/07/11 06:09:07;;;;;;;8.80;2.17;;;;;;;;;;5141393;27;20462;-72
2022/07/11 06:11:34;;;;;;;9.33;2.03;;;;;;;;;;5139974;27;20852;-71
2022/07/11 06:14:01;;;;;;;8.10;2.20;;;;;;;;;;5141823;27;20862;-72
2022/07/11 06:16:29;;;;;;;8.43;1.50;;;;;;;;;;5133252;27;20489;-72
2022/07/11 06:18:57;;;;;;;8.50;2.10;;;;;;;;;;5133610;27;20913;-72
2022/07/11 06:21:24;;;;;;;8.80;1.87;;;;;;;;;;5133665;27;20443;-72
2022/07/11 06:23:51;;;;;;;7.50;1.90;;;;;;;;;;5133247;27;20924;-71
2022/07/11 06:26:18;;;;;;;8.90;1.83;;;;;;;;;;5132644;27;20446;-71
2022/07/11 06:28:45;;;;;;;7.73;1.97;;;;;;;;;;5133296;27;20926;-71
2022/07/11 06:31:13;;;;;;;7.50;1.77;;;;;;;;;;5132657;27;20505;-72
2022/07/11 06:33:41;;;;;;;7.67;2.03;;;;;;;;;;5133102;27;20861;-71
2022/07/11 06:36:09;;;;;;;7.77;2.20;;;;;;;;;;5118848;27;20479;-72
2022/07/11 06:38:36;;;;;;;9.33;2.17;;;;;;;;;;5133076;27;20541;-72
2022/07/11 06:41:03;;;;;;;7.40;1.77;;;;;;;;;;5132715;27;20439;-71
2022/07/11 06:43:30;;;;;;;10.40;2.13;;;;;;;;;;5133254;27;20446;-72
2022/07/11 06:45:59;;;;;;;6.80;1.40;;;;;;;;;;5132292;27;20501;-71
2022/07/11 06:48:27;;;;;;;7.47;1.90;;;;;;;;;;5132855;27;20494;-72
2022/07/11 06:50:55;;;;;;;7.47;1.50;;;;;;;;;;5132945;27;20462;-71
2022/07/11 06:53:22;;;;;;;7.63;1.90;;;;;;;;;;5132928;27;20527;-72
2022/07/11 06:55:49;;;;;;;7.40;1.97;;;;;;;;;;5132516;27;20485;-71
2022/07/11 07:00:58;;;;;;;8.50;2.10;;;;;;;;;;5131902;27;20518;-71
2022/07/11 07:03:25;;;;;;;7.43;2.07;;;;;;;;;;5133032;27;20442;-72
2022/07/11 07:05:55;;;;;;;8.57;2.57;;;;;;;;;;5132418;27;20906;-72
2022/07/11 07:08:24;;;;;;;8.27;2.23;;;;;;;;;;5132148;27;20447;-72
2022/07/11 07:10:51;;;;;;;8.53;2.13;;;;;;;;;;5132736;27;20447;-72
2022/07/11 07:13:20;;;;;;;9.20;2.60;;;;;;;;;;5145988;27;20447;-72
2022/07/11 07:15:47;;;;;;;8.97;2.60;;;;;;;;;;5132243;27;20838;-72
2022/07/11 07:18:14;;;;;;;7.10;1.73;;;;;;;;;;5131988;27;20450;-72
2022/07/11 07:20:42;;;;;;;7.80;2.17;;;;;;;;;;5132826;27;20453;-71
2022/07/11 07:23:09;;;;;;;8.23;2.27;;;;;;;;;;5117815;27;20878;-72
2022/07/11 07:25:38;;;;;;;7.53;1.90;;;;;;;;;;5131790;27;20530;-71
2022/07/11 07:28:05;;;;;;;7.37;2.00;;;;;;;;;;5128479;27;20913;-71
2022/07/11 07:30:33;;;;;;;8.37;2.30;;;;;;;;;;5132432;27;20466;-72
2022/07/11 07:33:01;;;;;;;7.70;1.97;;;;;;;;;;5131667;27;20799;-71
2022/07/11 07:35:28;;;;;;;7.17;1.77;;;;;;;;;;5131591;27;20447;-72
2022/07/11 07:37:55;;;;;;;7.57;1.70;;;;;;;;;;5132098;27;20446;-72
2022/07/11 07:40:23;;;;;;;7.80;1.80;;;;;;;;;;5132324;27;20576;-72
2022/07/11 07:42:51;;;;;;;7.50;1.67;;;;;;;;;;5131935;27;20956;-71
2022/07/11 07:45:18;;;;;;;7.53;1.83;;;;;;;;;;5131214;27;20526;-71
2022/07/11 07:47:45;;;;;;;7.63;1.80;;;;;;;;;;5131950;27;20443;-72
2022/07/11 07:50:13;;;;;;;8.47;1.93;;;;;;;;;;5131242;27;20986;-72
2022/07/11 07:52:40;;;;;;;8.00;1.97;;;;;;;;;;5131510;27;20443;-71
2022/07/11 07:55:08;;;;;;;7.17;1.47;;;;;;;;;;5130725;27;20462;-72
2022/07/11 07:57:35;;;;;;;7.40;1.70;;;;;;;;;;5131864;28;20505;-72
2022/07/11 08:03:05;;;;;;;7.57;1.67;;;;;;;;;;5047765;28;20435;-72
2022/07/11 08:05:32;;;;;;;8.07;1.77;;;;;;;;;;5114312;28;20431;-72
2022/07/11 08:07:59;;;;;;;9.33;1.77;;;;;;;;;;5131146;28;20453;-72
2022/07/11 08:10:26;;;;;;;7.40;1.50;;;;;;;;;;5132215;28;20504;-71
2022/07/11 08:12:53;;;;;;;8.93;1.50;;;;;;;;;;5144461;27;20549;-72
2022/07/11 08:15:22;;;;;;;8.73;1.80;;;;;;;;;;5130671;28;20449;-72
2022/07/11 08:17:49;;;;;;;7.70;1.77;;;;;;;;;;5131748;28;20483;-72
2022/07/11 08:20:16;;;;;;;7.40;1.20;;;;;;;;;;5131378;28;20675;-72
2022/07/11 08:22:43;;;;;;;7.83;1.57;;;;;;;;;;5131785;28;20533;-72
2022/07/11 08:25:10;;;;;;;15.33;2.30;;;;;;;;;;5130811;28;20439;-72
2022/07/11 08:27:37;;;;;;;8.07;1.37;;;;;;;;;;5131771;28;20813;-72
2022/07/11 08:30:05;;;;;;;8.07;1.60;;;;;;;;;;5131469;28;20447;-72
2022/07/11 08:32:34;;;;;;;8.37;1.30;;;;;;;;;;5131623;28;20454;-72
2022/07/11 08:35:01;;;;;;;7.00;1.07;;;;;;;;;;5130838;28;20477;-71
2022/07/11 08:37:28;;;;;;;7.20;1.30;;;;;;;;;;5131424;28;20842;-72
2022/07/11 08:39:55;;;;;;;7.40;1.20;;;;;;;;;;5131735;28;20451;-72
2022/07/11 08:42:25;;;;;;;7.50;1.57;;;;;;;;;;5131647;28;20545;-72
2022/07/11 08:44:52;;;;;;;7.10;1.10;;;;;;;;;;5131343;28;20454;-72
2022/07/11 08:47:20;;;;;;;8.33;1.60;;;;;;;;;;5130720;28;20451;-72
2022/07/11 08:49:48;;;;;;;6.90;1.17;;;;;;;;;;5131652;28;20462;-72
2022/07/11 08:52:19;;;;;;;7.27;1.10;;;;;;;;;;5130857;28;20903;-71
2022/07/11 08:54:46;;;;;;;6.70;1.00;;;;;;;;;;5130651;28;20439;-72
2022/07/11 08:57:13;;;;;;;7.00;1.30;;;;;;;;;;5130435;28;20493;-72
2022/07/11 08:59:42;;;;;;;6.57;0.97;;;;;;;;;;5131381;28;20447;-72
2022/07/11 09:02:10;;;;;;;7.20;1.20;;;;;;;;;;5131150;27;20507;-72
2022/07/11 09:04:37;;;;;;;7.60;1.63;;;;;;;;;;5134793;27;20817;-72
2022/07/11 09:07:06;;;;;;;6.80;1.00;;;;;;;;;;5135505;27;20439;-72
2022/07/11 09:09:34;;;;;;;7.37;1.17;;;;;;;;;;5134814;27;20447;-71
2022/07/11 09:12:01;;;;;;;7.20;1.10;;;;;;;;;;5143668;27;20485;-71
2022/07/11 09:14:30;;;;;;;7.47;1.03;;;;;;;;;;5138761;27;20454;-72
2022/07/11 09:16:58;;;;;;;7.10;1.17;;;;;;;;;;5137624;27;20496;-72
2022/07/11 09:19:26;;;;;;;8.60;1.20;;;;;;;;;;5142921;27;20446;-72
2022/07/11 09:27:44;;;;;;;8.13;0.90;;;;;;;;;;5144195;27;20460;-72
2022/07/11 09:30:19;;;;;;;8.03;1.07;;;;;;;;;;5139336;27;20491;-71
2022/07/11 09:32:54;;;;;;;7.43;1.13;;;;;;;;;;5140468;27;20450;-72
2022/07/11 09:35:21;;;;;;;7.17;0.93;;;;;;;;;;5135261;27;20994;-71
2022/07/11 09:37:49;;;;;;;9.30;1.10;;;;;;;;;;5135271;27;20482;-70
2022/07/11 09:40:18;;;;;;;7.80;1.57;;;;;;;;;;5133843;27;20799;-71
2022/07/11 09:42:48;;;;;;;7.30;1.03;;;;;;;;;;5135099;27;20818;-71
2022/07/11 09:45:17;;;;;;;7.90;1.53;;;;;;;;;;5133669;27;20499;-71
2022/07/11 09:47:44;;;;;;;7.40;1.10;;;;;;;;;;5134759;27;20458;-73
2022/07/11 09:50:12;;;;;;;7.60;1.17;;;;;;;;;;5133878;27;20801;-71
2022/07/11 09:52:40;;;;;;;7.70;1.30;;;;;;;;;;5134721;27;20543;-71
2022/07/11 09:55:07;;;;;;;8.40;1.30;;;;;;;;;;5132912;27;20941;-71
2022/07/11 09:57:36;;;;;;;8.30;0.93;;;;;;;;;;5134287;27;20482;-71
2022/07/11 10:00:04;;;;;;;7.80;1.20;;;;;;;;;;5133746;27;20446;-70
2022/07/11 10:02:31;;;;;;;7.40;1.20;;;;;;;;;;5134320;27;20455;-71
2022/07/11 10:04:59;;;;;;;8.53;1.37;;;;;;;;;;5133304;27;20443;-71
2022/07/11 10:07:26;;;;;;;7.90;1.40;;;;;;;;;;5134480;27;20451;-71
2022/07/11 10:09:54;;;;;;;8.13;1.00;;;;;;;;;;5134313;27;20533;-70
2022/07/11 10:12:21;;;;;;;7.50;1.07;;;;;;;;;;5144904;27;20482;-70
2022/07/11 10:14:50;;;;;;;7.67;1.30;;;;;;;;;;5134338;27;20892;-70
2022/07/11 10:17:20;;;;;;;7.37;1.10;;;;;;;;;;5133283;27;20937;-70
2022/07/11 10:19:50;;;;;;;7.80;1.00;;;;;;;;;;5134020;27;20823;-70
2022/07/11 10:22:21;;;;;;;7.47;1.13;;;;;;;;;;5133283;27;20854;-72
2022/07/11 10:24:54;;;;;;;7.23;0.90;;;;;;;;;;5132841;27;20566;-71
2022/07/11 10:27:26;;;;;;;7.40;0.90;;;;;;;;;;5133170;27;20443;-71
2022/07/11 10:29:55;;;;;;;7.37;0.80;;;;;;;;;;5133970;27;20845;-71
2022/07/11 10:32:22;;;;;;;7.37;0.80;;;;;;;;;;5133679;27;20455;-71
2022/07/11 10:35:04;;;;;;;7.27;0.80;;;;;;;;;;5132786;27;20477;-71
2022/07/11 10:37:32;;;;;;;7.60;1.20;;;;;;;;;;5133280;27;20474;-71
2022/07/11 10:39:59;;;;;;;7.70;1.00;;;;;;;;;;5132778;27;20450;-71
2022/07/11 10:42:39;;;;;;;7.73;1.13;;;;;;;;;;5133230;27;20453;-71
2022/07/11 10:45:10;;;;;;;7.90;1.10;;;;;;;;;;5132184;27;20435;-71
2022/07/11 10:47:41;;;;;;;7.70;0.97;;;;;;;;;;5132899;27;20454;-71
2022/07/11 10:50:25;;;;;;;7.67;1.17;;;;;;;;;;5132551;27;20443;-71
2022/07/11 10:52:56;;;;;;;7.63;1.10;;;;;;;;;;5133125;27;20447;-72
2022/07/11 10:55:37;;;;;;;7.60;1.00;;;;;;;;;;5132387;27;20996;-71
2022/07/11 10:58:08;;;;;;;7.70;0.97;;;;;;;;;;5132063;27;20523;-71
2022/07/11 11:00:36;;;;;;;8.13;1.00;;;;;;;;;;5132953;27;20445;-71
2022/07/11 11:03:05;;;;;;;7.90;1.27;;;;;;;;;;5132554;27;20450;-72
2022/07/11 11:05:42;;;;;;;7.67;0.97;;;;;;;;;;5132503;27;20435;-72
2022/07/11 11:08:24;;;;;;;7.73;1.03;;;;;;;;;;5132052;27;20447;-72
2022/07/11 11:10:52;;;;;;;8.00;1.10;;;;;;;;;;5132091;27;20451;-72
2022/07/11 11:13:20;;;;;;;8.00;1.20;;;;;;;;;;5145313;27;20451;-72
2022/07/11 11:15:50;;;;;;;8.63;1.10;;;;;;;;;;5132470;27;20477;-72
2022/07/11 11:18:34;;;;;;;7.90;1.07;;;;;;;;;;5132440;27;20860;-72
2022/07/11 11:21:19;;;;;;;7.70;1.00;;;;;;;;;;5130586;27;20801;-72
2022/07/11 11:23:47;;;;;;;7.97;1.30;;;;;;;;;;5131766;27;20534;-72
2022/07/11 11:26:18;;;;;;;8.00;1.10;;;;;;;;;;5131030;27;20449;-72
2022/07/11 11:28:58;;;;;;;8.00;1.20;;;;;;;;;;5132580;27;20517;-72
2022/07/11 11:31:29;;;;;;;8.00;1.20;;;;;;;;;;5132504;27;20455;-71
2022/07/11 11:33:57;;;;;;;12.27;1.20;;;;;;;;;;5132042;27;20475;-71
2022/07/11 11:36:25;;;;;;;8.20;1.10;;;;;;;;;;5132646;27;20443;-72
2022/07/11 11:38:53;;;;;;;8.17;1.10;;;;;;;;;;5132392;27;20842;-71
2022/07/11 11:41:23;;;;;;;8.10;1.17;;;;;;;;;;5132157;27;20452;-71
2022/07/11 11:43:50;;;;;;;8.00;1.10;;;;;;;;;;5131756;27;20894;-71
2022/07/11 11:46:17;;;;;;;8.40;1.10;;;;;;;;;;5131715;27;20617;-71
2022/07/11 11:48:46;;;;;;;8.20;1.13;;;;;;;;;;5132184;27;20447;-71
2022/07/11 11:51:14;;;;;;;8.60;1.20;;;;;;;;;;5131883;27;20444;-71
2022/07/11 11:53:43;;;;;;;8.00;1.10;;;;;;;;;;5131216;27;20449;-71
2022/07/11 11:56:15;;;;;;;7.87;1.00;;;;;;;;;;5131587;27;20443;-70
2022/07/11 11:58:43;;;;;;;8.57;1.07;;;;;;;;;;5131956;28;20531;-71
2022/07/11 12:01:10;;;;;;;8.27;1.30;;;;;;;;;;5131497;28;20449;-72
2022/07/11 12:03:52;;;;;;;8.00;1.10;;;;;;;;;;5131684;28;20531;-72
2022/07/11 12:06:22;;;;;;;8.17;1.13;;;;;;;;;;5131107;28;20446;-72
2022/07/11 12:08:49;;;;;;;8.50;1.50;;;;;;;;;;5131838;28;20439;-72
2022/07/11 12:11:16;;;;;;;7.83;1.13;;;;;;;;;;5133765;27;20449;-71
2022/07/11 12:13:44;;;;;;;8.20;1.23;;;;;;;;;;5141960;27;20948;-70
2022/07/11 12:19:01;;;;;;;8.10;1.20;;;;;;;;;;5131131;28;20548;-71
2022/07/11 12:21:29;;;;;;;8.17;1.40;;;;;;;;;;5118323;28;20457;-71
2022/07/11 12:23:57;;;;;;;8.10;1.23;;;;;;;;;;5131087;28;20451;-71
2022/07/11 12:26:25;;;;;;;8.10;1.10;;;;;;;;;;5131870;28;20450;-71
2022/07/11 12:29:05;;;;;;;8.07;1.40;;;;;;;;;;5131620;28;20439;-71
2022/07/11 12:31:41;;;;;;;8.00;1.23;;;;;;;;;;5131557;28;20450;-71
2022/07/11 12:34:10;;;;;;;8.23;1.40;;;;;;;;;;5130609;28;20566;-70
2022/07/11 12:36:37;;;;;;;8.30;1.20;;;;;;;;;;5131746;27;20789;-71
2022/07/11 12:39:05;;;;;;;8.40;1.40;;;;;;;;;;5134344;27;20479;-70
2022/07/11 12:41:32;;;;;;;7.83;1.00;;;;;;;;;;5136333;27;20451;-71
2022/07/11 12:46:46;;;;;;;8.40;1.40;;;;;;;;;;5135575;27;20472;-71
2022/07/11 12:49:15;;;;;;;9.30;1.47;;;;;;;;;;5137421;27;20538;-72
2022/07/11 12:51:43;;;;;;;8.70;1.50;;;;;;;;;;5135853;27;20438;-71
2022/07/11 12:54:11;;;;;;;8.23;1.40;;;;;;;;;;5134176;27;20937;-71
2022/07/11 12:56:39;;;;;;;8.40;1.33;;;;;;;;;;5134912;27;20979;-70
2022/07/11 12:59:07;;;;;;;8.90;1.50;;;;;;;;;;5134588;27;21093;-71
2022/07/11 13:01:35;;;;;;;8.70;1.43;;;;;;;;;;5135224;27;20467;-71
2022/07/11 13:04:02;;;;;;;8.13;1.47;;;;;;;;;;5134400;27;20525;-71
2022/07/11 13:09:16;;;;;;;8.27;1.20;;;;;;;;;;5134407;27;20919;-72
2022/07/11 13:11:43;;;;;;;8.60;1.50;;;;;;;;;;5127621;27;20460;-72
2022/07/11 13:16:51;;;;;;;8.77;1.73;;;;;;;;;;5133801;27;20937;-71
2022/07/11 13:19:19;;;;;;;8.90;2.03;;;;;;;;;;5134295;27;20474;-72
2022/07/11 13:21:47;;;;;;;8.93;1.83;;;;;;;;;;5134922;27;20455;-71
2022/07/11 13:24:14;;;;;;;8.20;1.40;;;;;;;;;;5133656;27;20477;-71
2022/07/11 13:26:41;;;;;;;8.70;1.67;;;;;;;;;;5134703;27;20451;-72
2022/07/11 13:29:08;;;;;;;12.93;4.60;;;;;;;;;;5134293;27;20455;-72
2022/07/11 13:31:35;;;;;;;12.43;4.13;;;;;;;;;;5134253;27;20451;-72
2022/07/11 13:34:03;;;;;;;10.10;2.77;;;;;;;;;;5133449;27;20484;-71
2022/07/11 13:36:30;;;;;;;11.40;2.90;;;;;;;;;;5134982;27;20499;-71
2022/07/11 13:38:59;;;;;;;11.33;2.97;;;;;;;;;;5134317;27;20483;-71
2022/07/11 13:41:26;;;;;;;8.60;1.40;;;;;;;;;;5135151;27;20443;-71
2022/07/11 13:43:53;;;;;;;8.47;1.47;;;;;;;;;;5134523;27;20478;-71
2022/07/11 13:46:21;;;;;;;8.30;1.20;;;;;;;;;;5133919;27;20453;-71
2022/07/11 13:48:48;;;;;;;8.43;1.60;;;;;;;;;;5133420;27;20542;-71
2022/07/11 13:51:15;;;;;;;8.17;1.23;;;;;;;;;;5133586;27;20925;-71
2022/07/11 13:53:43;;;;;;;8.13;1.23;;;;;;;;;;5133815;27;20455;-72
2022/07/11 13:56:11;;;;;;;8.90;1.97;;;;;;;;;;5133567;27;20447;-71
2022/07/11 13:58:38;;;;;;;8.30;1.50;;;;;;;;;;5133954;27;20524;-71
2022/07/11 14:01:06;;;;;;;9.73;1.83;;;;;;;;;;5133741;27;20451;-70
2022/07/11 14:03:33;;;;;;;8.30;1.50;;;;;;;;;;5133706;27;20435;-71
2022/07/11 14:06:00;;;;;;;9.70;1.37;;;;;;;;;;5133480;27;20496;-71
2022/07/11 14:08:27;;;;;;;9.13;1.57;;;;;;;;;;5133661;27;20446;-71
2022/07/11 14:10:54;;;;;;;8.60;1.67;;;;;;;;;;5133564;27;20451;-71
2022/07/11 14:13:23;;;;;;;8.50;1.50;;;;;;;;;;5146072;27;20461;-71
2022/07/11 14:15:50;;;;;;;8.40;1.70;;;;;;;;;;5133808;27;20442;-71
2022/07/11 14:18:17;;;;;;;8.50;1.67;;;;;;;;;;5133255;27;20492;-71
2022/07/11 14:20:45;;;;;;;8.50;1.60;;;;;;;;;;5133746;27;20450;-71
2022/07/11 14:23:12;;;;;;;8.40;1.53;;;;;;;;;;5133358;27;20808;-72
2022/07/11 14:25:39;;;;;;;8.40;1.60;;;;;;;;;;5132612;27;21006;-72
2022/07/11 14:28:06;;;;;;;8.70;1.90;;;;;;;;;;5132684;27;20489;-70
2022/07/11 14:30:35;;;;;;;9.90;2.73;;;;;;;;;;5133230;27;20937;-70
2022/07/11 14:33:02;;;;;;;8.40;1.80;;;;;;;;;;5132450;27;20491;-70
2022/07/11 14:35:30;;;;;;;8.60;1.77;;;;;;;;;;5133441;27;20430;-73
2022/07/11 14:37:57;;;;;;;8.30;1.60;;;;;;;;;;5133652;27;20483;-73
2022/07/11 14:40:25;;;;;;;11.03;1.80;;;;;;;;;;5133108;27;20922;-72
2022/07/11 14:42:52;;;;;;;8.10;1.60;;;;;;;;;;5133078;27;20515;-72
2022/07/11 14:45:19;;;;;;;8.70;1.83;;;;;;;;;;5132245;27;20451;-72
2022/07/11 14:47:48;;;;;;;9.10;2.30;;;;;;;;;;5132505;27;20941;-72
2022/07/11 14:50:15;;;;;;;8.60;1.80;;;;;;;;;;5132051;27;20443;-71
2022/07/11 14:52:43;;;;;;;8.80;1.50;;;;;;;;;;5133619;27;20500;-72
2022/07/11 14:55:11;;;;;;;10.00;1.80;;;;;;;;;;5132052;27;20442;-70
2022/07/11 14:57:39;;;;;;;11.33;2.07;;;;;;;;;;5133025;27;20446;-72
2022/07/11 15:00:06;;;;;;;8.30;1.53;;;;;;;;;;5132197;27;20478;-70